Time;durP1;ratioP1;P1;durP2;ratioP2;P2;SDS_P1;SDS_P2;PMS_P1;PMS_P2;Temp;Humidity;BMP_temperature;BMP_pressure;BME280_temperature;BME280_humidity;BME280_pressure;Samples;Min_cycle;Max_cycle;Signal;HPM_P1;HPM_P2
2024/01/29 05:22:32;;;;;;;4.72;3.55;;;;;;;-2.44;100.00;101680.88;5087067;28;20405;-33
2024/01/29 05:24:58;;;;;;;8.20;4.60;;;;;;;-2.41;100.00;101673.84;5088373;28;20450;-32
2024/01/29 05:27:23;;;;;;;8.27;5.47;;;;;;;-2.44;100.00;101686.34;5088161;28;20033;-34
2024/01/29 05:29:49;;;;;;;9.52;5.28;;;;;;;-2.32;100.00;101687.22;5071706;28;20476;-33
2024/01/29 05:32:15;;;;;;;6.97;5.57;;;;;;;-2.33;100.00;101680.19;5089523;28;20030;-33
2024/01/29 05:34:41;;;;;;;8.25;6.45;;;;;;;-2.33;100.00;101691.13;5089684;28;20480;-34
2024/01/29 05:37:06;;;;;;;7.03;4.93;;;;;;;-2.33;100.00;101696.59;5089186;28;20043;-34
2024/01/29 05:39:31;;;;;;;7.88;5.15;;;;;;;-2.31;100.00;101688.78;5089305;28;20492;-34
2024/01/29 05:41:57;;;;;;;6.38;5.00;;;;;;;-2.30;100.00;101693.09;5089506;28;20029;-32
2024/01/29 05:44:22;;;;;;;8.27;5.68;;;;;;;-2.37;100.00;101691.09;5086650;28;20514;-33
2024/01/29 05:46:47;;;;;;;8.98;5.80;;;;;;;-2.30;100.00;101688.41;5089127;28;20044;-34
2024/01/29 05:49:13;;;;;;;6.22;4.95;;;;;;;-2.34;100.00;101695.81;5091341;28;20036;-34
2024/01/29 05:51:38;;;;;;;8.30;5.60;;;;;;;-2.26;100.00;101699.38;5088444;28;20108;-34
2024/01/29 05:54:04;;;;;;;7.47;5.03;;;;;;;-2.29;100.00;101692.72;5087860;28;20415;-34
2024/01/29 05:56:29;;;;;;;7.00;4.95;;;;;;;-2.25;100.00;101699.00;5088797;28;20036;-34
2024/01/29 05:58:54;;;;;;;9.00;6.28;;;;;;;-2.13;100.00;101695.22;5088972;28;20044;-33
2024/01/29 06:01:20;;;;;;;9.15;5.32;;;;;;;-2.26;100.00;101700.16;5088899;28;20044;-34
2024/01/29 06:03:45;;;;;;;9.43;5.47;;;;;;;-2.37;100.00;101713.75;5088772;28;20062;-34
2024/01/29 06:06:11;;;;;;;8.40;4.80;;;;;;;-2.39;100.00;101704.34;5088435;28;20044;-33
2024/01/29 06:08:37;;;;;;;9.25;6.00;;;;;;;-2.46;100.00;101704.25;5088514;28;20051;-33
2024/01/29 06:11:03;;;;;;;8.10;5.13;;;;;;;-2.51;100.00;101708.09;5088440;28;20044;-34
2024/01/29 06:13:28;;;;;;;5.93;4.72;;;;;;;-2.48;100.00;101707.34;5088698;28;20064;-33
2024/01/29 06:15:53;;;;;;;8.27;4.72;;;;;;;-2.44;100.00;101710.94;5088663;28;20047;-33
2024/01/29 06:18:19;;;;;;;10.15;4.65;;;;;;;-2.38;100.00;101705.91;5088111;28;20047;-33
2024/01/29 06:20:44;;;;;;;7.43;4.90;;;;;;;-2.33;100.00;101711.03;5088299;28;20032;-33
2024/01/29 06:23:12;;;;;;;5.38;4.50;;;;;;;-2.51;100.00;101713.56;5088268;28;20040;-34
2024/01/29 06:25:37;;;;;;;8.33;4.73;;;;;;;-2.53;100.00;101713.19;5088620;28;20047;-33
2024/01/29 06:28:03;;;;;;;6.05;4.45;;;;;;;-2.50;100.00;101720.63;5089005;28;20286;-34
2024/01/29 06:30:28;;;;;;;7.18;4.95;;;;;;;-2.45;100.00;101720.28;5103586;28;20060;-35
2024/01/29 06:32:54;;;;;;;6.72;4.88;;;;;;;-2.54;100.00;101725.25;5093390;28;20040;-33
2024/01/29 06:35:22;;;;;;;9.70;4.78;;;;;;;-2.53;100.00;101726.84;5074522;28;20097;-34
2024/01/29 06:37:47;;;;;;;7.20;4.82;;;;;;;-2.45;100.00;101725.75;5074428;28;20043;-33
2024/01/29 06:40:13;;;;;;;21.27;9.65;;;;;;;-2.51;100.00;101724.50;5074350;28;20032;-33
2024/01/29 06:42:38;;;;;;;7.18;5.72;;;;;;;-2.33;100.00;101719.25;5074849;28;20692;-35
2024/01/29 06:45:04;;;;;;;9.68;5.88;;;;;;;-2.43;100.00;101717.19;5074300;28;20064;-34
2024/01/29 06:47:30;;;;;;;28.92;14.18;;;;;;;-2.65;100.00;101721.63;5074165;28;20511;-34
2024/01/29 06:49:58;;;;;;;15.35;8.80;;;;;;;-2.59;100.00;101728.31;5074180;28;20036;-34
2024/01/29 06:52:25;;;;;;;7.47;5.45;;;;;;;-2.40;100.00;101724.63;5073559;28;20380;-34
2024/01/29 06:54:51;;;;;;;12.85;7.18;;;;;;;-2.51;100.00;101735.44;5073219;28;20033;-34
2024/01/29 06:57:17;;;;;;;11.90;6.75;;;;;;;-2.43;100.00;101745.28;5073888;28;20032;-34
2024/01/29 06:59:42;;;;;;;6.68;4.90;;;;;;;-2.00;100.00;101742.22;5074047;28;20377;-34
2024/01/29 07:02:08;;;;;;;14.68;6.63;;;;;;;-1.99;100.00;101741.84;5073773;28;20036;-34
2024/01/29 07:04:33;;;;;;;13.15;6.10;;;;;;;-2.13;100.00;101736.22;5074103;28;20496;-34
2024/01/29 07:07:00;;;;;;;7.75;5.22;;;;;;;-2.16;100.00;101739.72;5073635;28;20056;-34
2024/01/29 07:09:25;;;;;;;8.35;5.40;;;;;;;-2.06;100.00;101746.44;5073881;28;20089;-33
2024/01/29 07:11:51;;;;;;;6.85;5.05;;;;;;;-1.98;100.00;101754.34;5074024;28;20040;-35
2024/01/29 07:14:16;;;;;;;7.85;4.60;;;;;;;-1.65;100.00;101756.19;5073661;28;20032;-34
2024/01/29 07:16:41;;;;;;;6.18;4.97;;;;;;;-1.60;100.00;101755.06;5077866;28;20063;-35
2024/01/29 07:19:07;;;;;;;10.70;5.10;;;;;;;-1.35;100.00;101754.44;5075489;28;20036;-34
2024/01/29 07:21:32;;;;;;;7.30;4.85;;;;;;;-1.34;100.00;101751.34;5073789;28;20037;-35
2024/01/29 07:23:58;;;;;;;6.80;4.30;;;;;;;-1.10;100.00;101752.66;5073850;28;20045;-34
2024/01/29 07:26:24;;;;;;;6.10;4.68;;;;;;;-1.11;100.00;101759.31;5065363;28;20083;-34
2024/01/29 07:28:50;;;;;;;7.30;4.78;;;;;;;-0.90;100.00;101763.34;5073251;28;20106;-34
2024/01/29 07:31:17;;;;;;;8.00;5.22;;;;;;;-0.65;100.00;101766.97;5073259;28;20040;-34
2024/01/29 07:33:43;;;;;;;8.73;5.63;;;;;;;0.28;100.00;101767.22;5073378;28;20040;-34
2024/01/29 07:36:08;;;;;;;7.57;5.13;;;;;;;0.88;100.00;101758.16;5073236;28;20040;-34
2024/01/29 07:38:35;;;;;;;7.28;5.53;;;;;;;1.53;100.00;101768.94;5073394;28;20419;-34
2024/01/29 07:41:00;;;;;;;7.70;5.55;;;;;;;1.89;100.00;101763.22;5073225;28;20043;-35
2024/01/29 07:43:26;;;;;;;8.93;5.78;;;;;;;1.89;100.00;101763.22;5073039;28;20041;-34
2024/01/29 07:45:51;;;;;;;9.80;6.40;;;;;;;3.30;94.33;101764.34;5072662;28;20044;-35
2024/01/29 07:48:16;;;;;;;6.88;5.65;;;;;;;4.30;79.76;101757.44;5072820;28;20044;-35
2024/01/29 07:50:42;;;;;;;8.20;5.78;;;;;;;4.33;77.97;101765.66;5072899;28;20032;-33
2024/01/29 07:53:07;;;;;;;9.98;5.80;;;;;;;2.41;88.18;101768.75;5072874;28;20047;-35
2024/01/29 07:55:33;;;;;;;9.13;5.70;;;;;;;2.69;89.91;101776.78;5072922;28;20443;-34
2024/01/29 07:57:58;;;;;;;6.53;5.30;;;;;;;3.42;86.33;101774.84;5072699;28;20492;-34
2024/01/29 08:00:24;;;;;;;11.07;5.72;;;;;;;2.88;90.56;101780.94;5064484;28;20036;-34
2024/01/29 08:02:50;;;;;;;5.97;4.85;;;;;;;3.10;86.31;101784.25;5072714;28;20058;-36
2024/01/29 08:05:16;;;;;;;7.25;5.18;;;;;;;4.68;76.48;101778.09;5072708;28;20043;-34
2024/01/29 08:07:41;;;;;;;5.78;4.88;;;;;;;4.59;80.25;101779.84;5072526;28;20040;-34
2024/01/29 08:10:07;;;;;;;6.78;4.85;;;;;;;7.23;65.81;101779.56;5072688;28;20064;-36
2024/01/29 08:12:32;;;;;;;8.20;5.20;;;;;;;7.45;63.29;101778.94;5072993;28;20059;-36
2024/01/29 08:14:57;;;;;;;6.30;4.90;;;;;;;7.84;60.30;101772.22;5073419;28;20527;-36
2024/01/29 08:17:23;;;;;;;6.22;4.68;;;;;;;9.63;55.54;101774.53;5078247;28;20028;-37
2024/01/29 08:19:48;;;;;;;5.93;4.60;;;;;;;9.00;55.46;101776.41;5079394;28;20063;-35
2024/01/29 08:22:14;;;;;;;5.68;4.18;;;;;;;7.00;61.87;101794.44;5081277;28;20051;-36
2024/01/29 08:24:39;;;;;;;7.45;4.80;;;;;;;5.95;66.72;101800.16;5076255;28;20500;-35
2024/01/29 08:27:04;;;;;;;8.68;4.75;;;;;;;5.33;68.38;101799.06;5072227;28;20534;-35
2024/01/29 08:29:30;;;;;;;6.10;4.70;;;;;;;4.95;72.71;101802.16;5072331;28;20062;-35
2024/01/29 08:31:55;;;;;;;5.53;4.70;;;;;;;6.34;69.13;101797.72;5072009;28;20461;-35
2024/01/29 08:34:22;;;;;;;4.97;4.40;;;;;;;8.75;59.60;101796.75;5072275;28;20044;-35
2024/01/29 08:36:48;;;;;;;5.10;3.83;;;;;;;10.31;54.64;101799.03;5072174;28;20124;-35
2024/01/29 08:39:13;;;;;;;4.57;3.80;;;;;;;9.27;54.82;101792.53;5071850;28;20127;-35
2024/01/29 08:41:39;;;;;;;5.15;3.97;;;;;;;8.32;57.03;101791.81;5072165;28;20124;-35
2024/01/29 08:44:05;;;;;;;5.25;4.35;;;;;;;7.49;61.36;101806.63;5072354;28;20044;-35
2024/01/29 08:46:30;;;;;;;4.97;4.15;;;;;;;9.45;56.60;101807.84;5072185;28;20059;-35
2024/01/29 08:48:56;;;;;;;4.40;3.53;;;;;;;9.46;55.45;101801.81;5071858;28;20043;-34
2024/01/29 08:51:21;;;;;;;5.30;3.80;;;;;;;11.14;50.66;101803.50;5071813;28;20040;-32
2024/01/29 08:53:47;;;;;;;5.97;3.88;;;;;;;10.42;52.06;101807.72;5072080;28;20044;-33
2024/01/29 08:56:12;;;;;;;5.47;4.43;;;;;;;7.76;62.50;101803.44;5071556;28;20480;-32
2024/01/29 08:58:38;;;;;;;5.25;4.05;;;;;;;11.43;50.47;101810.59;5086658;28;20047;-33
2024/01/29 09:01:03;;;;;;;4.53;3.63;;;;;;;10.10;52.38;101797.81;5071835;28;20063;-34
2024/01/29 09:03:29;;;;;;;4.97;3.63;;;;;;;12.54;48.41;101795.00;5071974;28;20036;-34
2024/01/29 09:05:54;;;;;;;5.13;4.25;;;;;;;13.33;46.20;101795.84;5072019;28;20036;-32
2024/01/29 09:08:21;;;;;;;7.63;4.65;;;;;;;12.02;49.12;101794.31;5071439;28;20079;-33
2024/01/29 09:10:47;;;;;;;5.03;4.10;;;;;;;11.82;49.59;101805.25;5071791;28;20028;-32
2024/01/29 09:13:12;;;;;;;4.95;3.85;;;;;;;8.99;55.56;101813.03;5071798;28;20488;-33
2024/01/29 09:15:38;;;;;;;5.75;3.63;;;;;;;9.85;55.07;101815.50;5071696;28;20037;-33
2024/01/29 09:18:04;;;;;;;3.88;3.28;;;;;;;8.10;60.57;101817.50;5070050;28;20047;-38
2024/01/29 09:20:29;;;;;;;4.30;3.30;;;;;;;9.21;56.33;101813.88;5071391;28;20097;-37
2024/01/29 09:22:55;;;;;;;4.40;3.40;;;;;;;9.27;56.84;101816.81;5071543;28;20040;-36
2024/01/29 09:25:20;;;;;;;3.90;3.03;;;;;;;10.68;54.36;101817.38;5071388;28;20127;-34
2024/01/29 09:27:46;;;;;;;4.50;3.40;;;;;;;10.40;53.79;101813.78;5071273;28;20116;-38
2024/01/29 09:30:12;;;;;;;4.75;3.92;;;;;;;11.06;53.04;101810.63;5071266;28;20561;-38
2024/01/29 09:32:37;;;;;;;4.20;3.13;;;;;;;11.05;53.30;101797.91;5071397;28;20084;-34
2024/01/29 09:35:04;;;;;;;3.47;2.85;;;;;;;11.01;54.06;101813.25;5071326;28;20091;-39
2024/01/29 09:37:29;;;;;;;6.07;3.60;;;;;;;11.31;53.20;101808.75;5071395;28;20036;-36
2024/01/29 09:39:55;;;;;;;4.28;3.08;;;;;;;11.72;52.39;101804.50;5071392;28;20117;-41
2024/01/29 09:42:24;;;;;;;5.07;3.42;;;;;;;11.77;52.60;101809.44;5071300;28;20044;-35
2024/01/29 09:44:52;;;;;;;4.28;3.22;;;;;;;12.92;50.64;101810.28;5071310;28;20052;-41
2024/01/29 09:47:19;;;;;;;3.75;3.10;;;;;;;11.67;55.19;101802.31;5071014;28;20052;-36
2024/01/29 09:49:46;;;;;;;3.67;3.03;;;;;;;11.53;53.58;101805.78;5071268;28;20033;-35
2024/01/29 09:52:12;;;;;;;4.18;3.55;;;;;;;12.92;52.06;101799.09;5071105;28;20081;-34
2024/01/29 09:54:40;;;;;;;4.90;3.25;;;;;;;11.89;53.01;101800.13;5070897;28;20047;-35
2024/01/29 09:57:05;;;;;;;3.72;3.33;;;;;;;12.96;51.49;101796.09;5069629;28;20036;-34
2024/01/29 09:59:31;;;;;;;4.00;3.20;;;;;;;12.30;52.19;101794.22;5071165;28;20433;-37
2024/01/29 10:01:59;;;;;;;4.78;4.20;;;;;;;12.69;51.55;101794.28;5071058;28;20049;-35
2024/01/29 10:04:25;;;;;;;4.28;3.22;;;;;;;12.50;50.95;101794.41;5071126;28;20046;-37
2024/01/29 10:06:50;;;;;;;4.55;3.17;;;;;;;13.16;51.03;101790.66;5071016;28;20120;-36
2024/01/29 10:09:16;;;;;;;4.30;3.40;;;;;;;10.91;53.74;101795.72;5074256;28;20044;-37
2024/01/29 10:11:42;;;;;;;3.40;3.10;;;;;;;9.73;60.32;101797.66;5074774;28;20420;-35
2024/01/29 10:14:08;;;;;;;4.38;3.60;;;;;;;11.21;55.97;101801.63;5074629;28;20033;-35
2024/01/29 10:16:33;;;;;;;4.28;3.58;;;;;;;10.54;57.35;101798.47;5074555;28;20527;-35
2024/01/29 10:19:00;;;;;;;5.32;3.65;;;;;;;9.85;59.53;101809.94;5074338;28;20507;-37
2024/01/29 10:21:27;;;;;;;5.13;3.73;;;;;;;9.59;61.68;101810.09;5074549;28;20029;-34
2024/01/29 10:23:56;;;;;;;6.00;3.92;;;;;;;8.44;65.18;101796.56;5074681;28;20782;-40
2024/01/29 10:26:23;;;;;;;4.32;3.88;;;;;;;9.20;63.61;101811.53;5074444;28;20377;-37
2024/01/29 10:29:05;;;;;;;4.13;3.73;;;;;;;8.89;65.51;101811.41;5074123;28;20029;-37
2024/01/29 10:31:31;;;;;;;5.95;4.40;;;;;;;8.94;67.45;101810.84;5074521;28;20785;-35
2024/01/29 10:33:58;;;;;;;4.90;4.05;;;;;;;9.74;62.91;101808.34;5074477;28;20556;-38
2024/01/29 10:36:24;;;;;;;4.57;3.65;;;;;;;10.34;60.15;101806.47;5074213;28;20420;-34
2024/01/29 10:38:50;;;;;;;6.32;4.05;;;;;;;10.23;60.14;101804.84;5073923;28;20040;-36
2024/01/29 10:41:17;;;;;;;4.60;3.90;;;;;;;10.39;60.01;101806.63;5073670;28;20033;-35
2024/01/29 10:43:47;;;;;;;4.80;4.20;;;;;;;11.45;55.69;101799.72;5073993;28;20036;-43
2024/01/29 10:46:21;;;;;;;5.00;3.70;;;;;;;10.14;57.69;101787.28;5071904;28;20036;-37
2024/01/29 10:48:48;;;;;;;5.22;4.18;;;;;;;9.40;60.96;101786.91;5073587;28;20064;-35
2024/01/29 10:51:14;;;;;;;5.60;4.17;;;;;;;11.16;57.61;101789.81;5071834;28;20111;-40
2024/01/29 10:53:41;;;;;;;5.65;4.20;;;;;;;9.37;61.16;101793.38;5073595;28;20278;-40
2024/01/29 10:56:08;;;;;;;5.53;4.28;;;;;;;9.37;61.44;101787.03;5073466;28;20067;-40
2024/01/29 10:58:35;;;;;;;5.68;4.13;;;;;;;10.80;58.90;101793.38;5070860;28;20492;-41
2024/01/29 11:01:00;;;;;;;4.68;4.03;;;;;;;11.30;57.35;101791.22;5073558;28;20506;-42
2024/01/29 11:03:26;;;;;;;4.90;4.32;;;;;;;10.90;59.03;101785.78;5072601;28;20112;-38
2024/01/29 11:06:13;;;;;;;4.70;4.05;;;;;;;12.55;54.77;101784.56;5073437;28;20087;-41
2024/01/29 11:08:41;;;;;;;5.30;3.88;;;;;;;12.20;56.09;101787.09;5072074;28;20111;-41
2024/01/29 11:11:09;;;;;;;5.45;4.57;;;;;;;11.48;58.29;101784.81;5073084;28;20104;-37
2024/01/29 11:13:35;;;;;;;4.75;4.05;;;;;;;12.38;56.70;101773.00;5070992;28;20028;-37
2024/01/29 11:16:01;;;;;;;6.20;3.88;;;;;;;12.35;53.88;101771.16;5073357;28;20056;-39
2024/01/29 11:18:32;;;;;;;7.72;4.13;;;;;;;13.18;51.29;101764.94;5072948;28;20028;-39
2024/01/29 11:20:57;;;;;;;6.57;4.45;;;;;;;12.06;53.32;101766.19;5070862;28;20479;-38
2024/01/29 11:23:23;;;;;;;5.35;4.32;;;;;;;11.24;54.88;101765.16;5073417;28;20059;-40
2024/01/29 11:25:51;;;;;;;5.10;3.78;;;;;;;11.01;57.44;101758.19;5073035;28;20040;-41
2024/01/29 11:28:17;;;;;;;5.85;4.28;;;;;;;11.38;56.80;101761.69;5071752;28;20033;-42
2024/01/29 11:30:54;;;;;;;5.25;3.80;;;;;;;12.26;53.08;101746.81;5073031;28;20573;-39
2024/01/29 11:33:21;;;;;;;4.65;4.20;;;;;;;10.97;57.80;101749.19;5072051;28;20045;-41
2024/01/29 11:35:49;;;;;;;4.82;4.05;;;;;;;13.46;53.63;101737.47;5072915;28;20023;-39
2024/01/29 11:38:21;;;;;;;5.95;4.43;;;;;;;12.95;51.21;101739.31;5071109;28;20396;-42
2024/01/29 11:40:46;;;;;;;5.90;4.65;;;;;;;12.28;55.63;101730.31;5072279;28;20460;-41
2024/01/29 11:43:12;;;;;;;5.63;4.70;;;;;;;12.76;51.44;101726.72;5072274;28;20059;-38
2024/01/29 11:45:38;;;;;;;6.82;5.15;;;;;;;11.59;55.54;101723.63;5072629;28;20028;-41
2024/01/29 11:48:12;;;;;;;4.90;4.40;;;;;;;11.42;55.44;101733.59;5071134;28;20033;-39
2024/01/29 11:50:43;;;;;;;4.90;4.40;;;;;;;13.06;52.55;101721.94;5072617;28;21912;-41
2024/01/29 11:53:11;;;;;;;5.93;4.72;;;;;;;12.79;53.32;101718.13;5072575;28;20111;-38
2024/01/29 11:55:37;;;;;;;6.00;4.40;;;;;;;12.46;53.57;101712.66;5072784;28;20039;-39
2024/01/29 11:58:02;;;;;;;5.80;4.47;;;;;;;12.62;55.35;101713.47;5072445;28;20032;-38
2024/01/29 12:00:28;;;;;;;5.88;4.80;;;;;;;12.10;55.27;101713.63;5072752;28;20493;-38
2024/01/29 12:02:54;;;;;;;6.90;4.45;;;;;;;13.17;53.92;101715.78;5072753;28;20138;-38
2024/01/29 12:05:19;;;;;;;6.95;4.38;;;;;;;13.79;51.93;101711.97;5072677;28;20035;-42
2024/01/29 12:07:48;;;;;;;5.18;4.38;;;;;;;13.56;52.61;101705.25;5072392;28;20116;-41
2024/01/29 12:10:15;;;;;;;6.03;4.55;;;;;;;13.90;50.66;101698.13;5072444;28;20039;-39
2024/01/29 12:12:41;;;;;;;6.07;4.28;;;;;;;13.40;54.47;101697.34;5072609;28;20035;-42
2024/01/29 12:15:09;;;;;;;4.72;3.92;;;;;;;13.25;52.63;101702.94;5072538;28;20412;-40
2024/01/29 12:17:39;;;;;;;6.20;4.22;;;;;;;13.56;51.00;101696.84;5072199;28;20369;-41
2024/01/29 12:20:05;;;;;;;5.03;4.15;;;;;;;13.26;50.98;101690.50;5072165;28;20043;-38
2024/01/29 12:22:32;;;;;;;5.50;4.70;;;;;;;13.57;51.14;101687.16;5072360;28;20091;-39
2024/01/29 12:24:59;;;;;;;4.68;4.20;;;;;;;13.39;50.96;101693.78;5072176;28;20039;-42
2024/01/29 12:27:24;;;;;;;4.60;4.07;;;;;;;14.41;49.47;101681.97;5072085;28;20032;-43
2024/01/29 12:29:50;;;;;;;6.40;4.05;;;;;;;13.85;50.96;101686.84;5071785;28;20488;-41
2024/01/29 12:32:20;;;;;;;4.95;4.00;;;;;;;13.49;50.33;101674.81;5071781;28;20032;-43
2024/01/29 12:34:47;;;;;;;4.55;4.03;;;;;;;12.95;52.18;101677.69;5072177;28;20039;-43
2024/01/29 12:37:21;;;;;;;6.27;3.90;;;;;;;14.36;50.98;101680.63;5071863;28;20622;-40
2024/01/29 12:39:53;;;;;;;4.18;3.78;;;;;;;14.30;50.69;101676.22;5071888;28;20282;-39
2024/01/29 12:42:20;;;;;;;4.80;4.03;;;;;;;13.52;52.25;101669.00;5071876;28;20492;-38
2024/01/29 12:44:47;;;;;;;4.53;3.72;;;;;;;13.50;52.06;101668.72;5070717;28;20035;-42
2024/01/29 12:47:17;;;;;;;4.82;3.78;;;;;;;12.58;54.54;101658.44;5071676;28;20036;-43
2024/01/29 12:49:43;;;;;;;6.07;3.30;;;;;;;14.44;52.67;101670.53;5071933;28;20040;-39
2024/01/29 12:52:11;;;;;;;5.53;3.20;;;;;;;14.78;50.85;101667.34;5071764;28;20034;-41
2024/01/29 12:54:37;;;;;;;4.18;3.47;;;;;;;13.28;51.66;101662.75;5071799;28;20040;-41
2024/01/29 12:57:03;;;;;;;4.32;3.50;;;;;;;13.77;51.32;101658.41;5071211;28;20040;-39
2024/01/29 12:59:28;;;;;;;4.93;3.58;;;;;;;13.86;50.80;101658.28;5063695;28;20037;-40
2024/01/29 13:01:54;;;;;;;3.55;2.90;;;;;;;14.46;49.68;101650.38;5071814;28;20032;-42
2024/01/29 13:04:20;;;;;;;4.38;3.30;;;;;;;12.50;54.37;101648.84;5062791;28;20032;-43
2024/01/29 13:06:46;;;;;;;6.07;3.60;;;;;;;13.92;51.51;101653.53;5071511;28;20064;-39
2024/01/29 13:09:12;;;;;;;6.68;3.40;;;;;;;13.94;53.32;101653.06;5071328;28;20127;-39
2024/01/29 13:11:37;;;;;;;4.47;3.97;;;;;;;13.48;52.35;101651.63;5071531;28;20496;-40
2024/01/29 13:14:03;;;;;;;4.07;3.30;;;;;;;12.61;53.04;101651.09;5071547;28;20050;-36
2024/01/29 13:16:28;;;;;;;7.82;3.53;;;;;;;13.20;53.11;101647.56;5070362;28;20509;-41
2024/01/29 13:18:53;;;;;;;2.95;2.65;;;;;;;13.73;51.83;101647.38;5071457;28;20487;-39
2024/01/29 13:21:21;;;;;;;4.10;3.55;;;;;;;12.38;54.24;101649.88;5071247;28;20402;-41
2024/01/29 13:23:47;;;;;;;3.53;3.10;;;;;;;13.01;52.94;101647.75;5071443;28;20040;-42
2024/01/29 13:26:15;;;;;;;4.65;3.45;;;;;;;12.78;52.52;101635.38;5071221;28;20089;-41
2024/01/29 13:28:41;;;;;;;3.08;2.78;;;;;;;13.24;50.07;101636.94;5071307;28;20111;-40
2024/01/29 13:31:07;;;;;;;3.88;2.97;;;;;;;12.70;51.73;101631.41;5071100;28;20457;-42
2024/01/29 13:33:33;;;;;;;3.70;3.00;;;;;;;12.85;50.93;101639.84;5075623;28;20126;-38
2024/01/29 13:36:00;;;;;;;4.35;2.88;;;;;;;12.86;51.78;101635.00;5075329;28;20495;-42
2024/01/29 13:38:25;;;;;;;3.60;2.40;;;;;;;13.11;50.67;101633.66;5071025;28;20036;-41
2024/01/29 13:40:52;;;;;;;3.75;3.20;;;;;;;12.84;49.41;101624.28;5071315;28;20028;-40
2024/01/29 13:43:18;;;;;;;3.58;2.55;;;;;;;13.42;52.37;101633.94;5073442;28;20016;-42
2024/01/29 13:45:47;;;;;;;4.07;3.17;;;;;;;13.39;50.03;101631.34;5075341;28;20041;-39
2024/01/29 13:48:13;;;;;;;2.63;2.30;;;;;;;12.75;51.45;101638.38;5075039;28;20514;-39
2024/01/29 13:50:38;;;;;;;2.00;1.80;;;;;;;12.29;52.56;101628.31;5075344;28;20496;-41
2024/01/29 13:53:04;;;;;;;2.97;2.45;;;;;;;12.76;53.35;101637.13;5075312;28;20060;-41
2024/01/29 13:55:29;;;;;;;2.80;2.50;;;;;;;12.36;53.97;101638.41;5075028;28;20404;-42
2024/01/29 13:57:55;;;;;;;3.50;2.40;;;;;;;12.88;54.40;101638.88;5074940;28;20052;-42
2024/01/29 14:00:20;;;;;;;3.47;2.80;;;;;;;12.43;52.73;101638.03;5074907;28;20123;-37
2024/01/29 14:02:45;;;;;;;2.88;2.58;;;;;;;12.34;54.21;101638.88;5075091;28;20021;-37
2024/01/29 14:05:11;;;;;;;3.78;2.60;;;;;;;11.55;56.50;101647.53;5074940;28;20698;-39
2024/01/29 14:07:37;;;;;;;3.15;2.60;;;;;;;11.57;56.80;101641.50;5072918;28;20036;-41
2024/01/29 14:10:03;;;;;;;4.78;3.13;;;;;;;12.07;55.51;101639.06;5074425;28;20044;-38
2024/01/29 14:12:28;;;;;;;3.20;2.75;;;;;;;12.26;55.70;101642.50;5074513;28;20480;-39
2024/01/29 14:15:01;;;;;;;4.93;3.13;;;;;;;12.52;56.87;101646.38;5073273;28;20048;-36
2024/01/29 14:17:26;;;;;;;5.05;2.88;;;;;;;12.26;55.91;101634.91;5072937;28;20451;-39
2024/01/29 14:19:52;;;;;;;3.60;2.55;;;;;;;11.91;55.81;101639.47;5074457;28;20036;-40
2024/01/29 14:22:18;;;;;;;3.30;2.60;;;;;;;11.58;56.39;101629.06;5074117;28;20399;-39
2024/01/29 14:24:44;;;;;;;3.55;3.00;;;;;;;11.93;57.48;101629.38;5074315;28;20474;-41
2024/01/29 14:27:09;;;;;;;4.65;3.00;;;;;;;12.17;57.70;101623.00;5074034;28;20059;-38
2024/01/29 14:29:35;;;;;;;4.28;2.80;;;;;;;12.21;55.70;101632.00;5074219;28;20028;-37
2024/01/29 14:32:00;;;;;;;4.28;2.58;;;;;;;12.17;54.72;101625.81;5074064;28;20115;-37
2024/01/29 14:34:25;;;;;;;3.72;2.58;;;;;;;11.90;54.46;101621.94;5073750;28;20043;-40
2024/01/29 14:36:51;;;;;;;4.03;2.75;;;;;;;11.88;55.43;101630.81;5073847;28;20139;-40
2024/01/29 14:39:18;;;;;;;4.28;2.85;;;;;;;11.73;55.91;101627.13;5073681;28;20024;-40
2024/01/29 14:41:50;;;;;;;3.78;2.42;;;;;;;11.20;56.61;101624.88;5074009;28;20028;-40
2024/01/29 14:44:16;;;;;;;3.65;2.63;;;;;;;11.11;56.73;101617.31;5073899;28;20037;-43
2024/01/29 14:46:42;;;;;;;4.03;2.53;;;;;;;10.81;57.13;101618.28;5073779;28;20035;-43
2024/01/29 14:49:08;;;;;;;5.78;3.80;;;;;;;10.98;57.32;101621.50;5073687;28;20067;-43
2024/01/29 14:51:33;;;;;;;5.43;2.85;;;;;;;10.64;58.14;101618.63;5073425;28;20035;-39
2024/01/29 14:53:58;;;;;;;2.97;2.60;;;;;;;11.21;58.27;101615.25;5073585;28;20132;-36
2024/01/29 14:56:24;;;;;;;4.47;2.55;;;;;;;11.44;58.79;101630.53;5073398;28;20051;-39
2024/01/29 14:58:50;;;;;;;2.80;2.22;;;;;;;11.22;57.51;101618.81;5073561;28;20032;-39
2024/01/29 15:01:16;;;;;;;3.42;2.20;;;;;;;11.11;58.91;101625.69;5073346;28;20059;-41
2024/01/29 15:03:44;;;;;;;3.88;3.00;;;;;;;11.06;59.03;101617.94;5073568;28;20039;-41
2024/01/29 15:06:09;;;;;;;3.47;2.75;;;;;;;10.79;60.20;101623.59;5073349;28;20365;-41
2024/01/29 15:08:37;;;;;;;3.05;2.75;;;;;;;10.67;60.09;101622.50;5073259;28;20028;-42
2024/01/29 15:11:02;;;;;;;5.30;3.10;;;;;;;10.86;60.53;101626.81;5073352;28;20111;-40
2024/01/29 15:13:31;;;;;;;4.38;2.80;;;;;;;10.76;60.60;101630.09;5073366;28;20158;-40
2024/01/29 15:15:57;;;;;;;3.15;2.85;;;;;;;10.84;61.61;101632.09;5073342;28;20077;-41
2024/01/29 15:18:23;;;;;;;4.15;2.63;;;;;;;10.94;62.30;101630.06;5073026;28;20033;-38
2024/01/29 15:20:49;;;;;;;3.70;2.90;;;;;;;11.01;61.33;101635.34;5072917;28;20029;-37
2024/01/29 15:23:14;;;;;;;5.03;2.65;;;;;;;10.98;62.20;101633.47;5073176;28;20395;-40
2024/01/29 15:25:41;;;;;;;5.57;3.10;;;;;;;10.96;62.62;101644.34;5073116;28;20038;-42
2024/01/29 15:28:06;;;;;;;4.30;3.38;;;;;;;10.76;64.77;101650.41;5072603;28;20085;-41
2024/01/29 15:30:35;;;;;;;5.38;3.35;;;;;;;10.78;65.98;101655.50;5072826;28;20032;-43
2024/01/29 15:33:00;;;;;;;4.47;3.10;;;;;;;10.49;64.93;101648.41;5072905;28;20037;-37
2024/01/29 15:35:25;;;;;;;4.93;3.15;;;;;;;10.67;65.67;101645.59;5072698;28;20078;-41
2024/01/29 15:37:51;;;;;;;5.20;3.45;;;;;;;10.62;65.91;101649.00;5072633;28;20404;-39
2024/01/29 15:40:16;;;;;;;4.82;3.00;;;;;;;10.29;66.08;101659.25;5072712;28;20032;-38
2024/01/29 15:42:43;;;;;;;5.20;3.67;;;;;;;10.36;66.91;101664.50;5072789;28;20408;-42
2024/01/29 15:45:09;;;;;;;6.40;3.47;;;;;;;10.12;66.55;101656.72;5072602;28;20036;-39
2024/01/29 15:47:34;;;;;;;6.22;3.78;;;;;;;10.09;69.20;101666.00;5072348;28;20424;-41
2024/01/29 15:50:00;;;;;;;5.35;3.60;;;;;;;9.80;67.91;101669.19;5072570;28;20059;-39
2024/01/29 15:52:25;;;;;;;6.97;3.97;;;;;;;9.52;70.09;101668.28;5072314;28;20127;-39
2024/01/29 15:54:51;;;;;;;5.50;3.88;;;;;;;9.84;69.79;101669.03;5072733;28;20105;-40
2024/01/29 15:57:16;;;;;;;5.75;3.80;;;;;;;9.79;69.86;101667.59;5072298;28;20103;-38
2024/01/29 15:59:42;;;;;;;5.45;3.80;;;;;;;9.76;70.41;101665.78;5072830;28;20039;-38
2024/01/29 16:02:08;;;;;;;6.25;4.75;;;;;;;9.64;69.40;101666.66;5072636;28;20036;-40
2024/01/29 16:04:34;;;;;;;8.75;5.63;;;;;;;9.35;71.32;101678.13;5072266;28;20147;-40
2024/01/29 16:07:04;;;;;;;8.57;4.70;;;;;;;9.12;74.55;101677.38;5071966;28;20028;-37
2024/01/29 16:09:30;;;;;;;8.57;4.72;;;;;;;9.30;72.36;101676.69;5072473;28;20403;-39
2024/01/29 16:11:55;;;;;;;5.85;4.68;;;;;;;9.17;74.48;101679.56;5072512;28;20017;-39
2024/01/29 16:14:21;;;;;;;6.53;4.80;;;;;;;9.03;76.30;101680.09;5072489;28;20040;-38
2024/01/29 16:16:46;;;;;;;7.78;5.22;;;;;;;9.06;73.33;101682.75;5072031;28;20087;-40
2024/01/29 16:19:12;;;;;;;11.00;7.15;;;;;;;9.02;74.16;101682.13;5070808;28;20050;-42
2024/01/29 16:21:37;;;;;;;9.30;6.47;;;;;;;8.83;76.06;101678.41;5071909;28;20507;-40
2024/01/29 16:24:04;;;;;;;10.32;5.65;;;;;;;8.70;78.43;101683.28;5072329;28;20028;-39
2024/01/29 16:26:30;;;;;;;7.80;5.30;;;;;;;8.32;81.61;101683.38;5072243;28;20029;-41
2024/01/29 16:28:55;;;;;;;7.03;5.13;;;;;;;8.25;82.11;101684.38;5071960;28;20384;-36
2024/01/29 16:31:20;;;;;;;6.03;4.90;;;;;;;7.95;85.24;101677.41;5070748;28;20047;-35
2024/01/29 16:33:46;;;;;;;7.55;5.57;;;;;;;8.03;84.43;101686.31;5071339;28;20041;-35
2024/01/29 16:36:21;;;;;;;7.88;5.97;;;;;;;7.74;86.46;101678.09;5071874;28;20120;-36
2024/01/29 16:38:48;;;;;;;9.57;6.75;;;;;;;7.83;85.89;101684.56;5071377;28;20048;-36
2024/01/29 16:41:21;;;;;;;12.20;6.32;;;;;;;7.56;88.40;101679.44;5072057;28;20407;-36